createdAt,value
2022-09-06T00:01:23.476Z,2.00
2022-09-06T00:03:57.400Z,2.10
2022-09-06T00:06:28.414Z,2.85
2022-09-06T00:08:56.360Z,2.13
2022-09-06T00:11:24.281Z,1.88
2022-09-06T00:13:53.670Z,1.95
2022-09-06T00:16:27.300Z,2.20
2022-09-06T00:19:03.321Z,2.22
2022-09-06T00:21:32.446Z,2.33
2022-09-06T00:24:01.305Z,1.50
2022-09-06T00:26:29.240Z,2.15
2022-09-06T00:28:58.701Z,2.65
2022-09-06T00:31:28.764Z,2.42
2022-09-06T00:33:57.059Z,2.50
2022-09-06T00:36:25.235Z,2.22
2022-09-06T00:38:53.242Z,2.50
2022-09-06T00:41:29.774Z,3.00
2022-09-06T00:44:02.065Z,2.97
2022-09-06T00:46:32.619Z,2.28
2022-09-06T00:49:08.175Z,2.25
2022-09-06T00:51:37.540Z,1.70
2022-09-06T00:54:07.998Z,2.40
2022-09-06T00:56:41.795Z,3.00
2022-09-06T00:59:15.283Z,2.63
2022-09-06T01:01:43.368Z,2.33
2022-09-06T01:04:20.302Z,2.10
2022-09-06T01:07:04.664Z,2.47
2022-09-06T01:12:21.968Z,1.88
2022-09-06T01:15:06.079Z,1.85
2022-09-06T01:17:45.711Z,2.78
2022-09-06T01:20:41.937Z,2.33
2022-09-06T01:23:48.871Z,2.17
2022-09-06T01:26:38.909Z,1.70
2022-09-06T01:29:17.208Z,2.40
2022-09-06T01:31:49.231Z,2.13
2022-09-06T01:34:29.948Z,2.30
2022-09-06T01:37:10.363Z,2.40
2022-09-06T01:39:40.796Z,2.33
2022-09-06T01:42:12.029Z,2.65
2022-09-06T01:44:44.903Z,2.08
2022-09-06T01:47:22.984Z,2.35
2022-09-06T01:50:12.081Z,2.63
2022-09-06T01:52:58.112Z,2.05
2022-09-06T01:55:40.482Z,2.83
2022-09-06T01:58:25.500Z,2.53
2022-09-06T02:01:03.501Z,1.92
2022-09-06T02:03:35.732Z,2.63
2022-09-06T02:06:08.635Z,2.88
2022-09-06T02:08:49.175Z,2.47
2022-09-06T02:11:18.064Z,2.25
2022-09-06T02:13:52.385Z,2.17
2022-09-06T02:16:26.671Z,1.83
2022-09-06T02:18:59.835Z,2.00
2022-09-06T02:21:54.219Z,2.33
2022-09-06T02:24:27.211Z,2.30
2022-09-06T02:26:55.585Z,2.55
2022-09-06T02:29:24.201Z,2.67
2022-09-06T02:32:02.748Z,2.88
2022-09-06T02:34:38.473Z,2.42
2022-09-06T02:37:06.767Z,3.53
2022-09-06T02:39:34.840Z,2.55
2022-09-06T02:42:04.991Z,2.95
2022-09-06T02:44:33.503Z,3.17
2022-09-06T02:47:05.765Z,2.95
2022-09-06T02:49:34.111Z,2.60
2022-09-06T02:52:16.490Z,2.30
2022-09-06T02:54:47.363Z,1.90
2022-09-06T02:57:15.273Z,2.50
2022-09-06T02:59:46.889Z,1.92
2022-09-06T03:02:18.014Z,1.60
2022-09-06T03:04:49.143Z,1.50
2022-09-06T03:07:17.317Z,2.50
2022-09-06T03:09:45.205Z,2.65
2022-09-06T03:12:13.387Z,2.78
2022-09-06T03:14:41.480Z,2.17
2022-09-06T03:17:09.387Z,1.73
2022-09-06T03:19:41.646Z,1.90
2022-09-06T03:22:09.619Z,1.90
2022-09-06T03:24:41.386Z,2.10
2022-09-06T03:27:18.751Z,2.28
2022-09-06T03:30:12.772Z,2.45
2022-09-06T03:32:49.664Z,1.85
2022-09-06T03:35:19.066Z,2.50
2022-09-06T03:37:49.250Z,2.08
2022-09-06T03:40:17.626Z,2.15
2022-09-06T03:42:46.664Z,2.42
2022-09-06T03:45:14.746Z,2.08
2022-09-06T03:47:52.104Z,2.25
2022-09-06T03:50:21.475Z,2.10
2022-09-06T03:52:52.530Z,2.00
2022-09-06T03:55:20.350Z,2.30
2022-09-06T03:57:50.986Z,2.50
2022-09-06T04:00:19.197Z,1.65
2022-09-06T04:02:49.734Z,2.20
2022-09-06T04:05:18.161Z,2.00
2022-09-06T04:07:50.078Z,2.10
2022-09-06T04:10:18.604Z,1.98
2022-09-06T04:12:49.578Z,2.42
2022-09-06T04:15:17.583Z,2.38
2022-09-06T04:17:46.618Z,2.22
2022-09-06T04:20:15.252Z,1.75
2022-09-06T04:22:43.450Z,2.13
2022-09-06T04:25:13.795Z,2.33
2022-09-06T04:27:44.932Z,1.70
2022-09-06T04:30:13.114Z,1.98
2022-09-06T04:32:41.334Z,1.70
2022-09-06T04:35:17.015Z,2.33
2022-09-06T04:37:44.946Z,2.00
2022-09-06T04:40:15.068Z,2.30
2022-09-06T04:42:45.057Z,2.25
2022-09-06T04:45:20.498Z,2.00
2022-09-06T04:47:50.345Z,2.20
2022-09-06T04:50:21.145Z,1.92
2022-09-06T04:52:49.594Z,1.92
2022-09-06T04:55:18.939Z,2.70
2022-09-06T04:57:51.075Z,2.33
2022-09-06T05:00:19.742Z,1.70
2022-09-06T05:02:48.513Z,2.08
2022-09-06T05:05:16.922Z,2.17
2022-09-06T05:07:45.160Z,1.98
2022-09-06T05:10:13.284Z,1.80
2022-09-06T05:12:44.440Z,1.55
2022-09-06T05:15:14.074Z,2.03
2022-09-06T05:17:42.054Z,2.55
2022-09-06T05:20:11.699Z,1.85
2022-09-06T05:22:39.775Z,2.17
2022-09-06T05:25:11.123Z,2.47
2022-09-06T05:27:40.526Z,2.00
2022-09-06T05:30:11.731Z,1.95
2022-09-06T05:32:41.165Z,1.90
2022-09-06T05:35:10.183Z,2.70
2022-09-06T05:37:38.326Z,1.90
2022-09-06T05:40:07.258Z,2.42
2022-09-06T05:42:37.491Z,2.33
2022-09-06T05:45:17.209Z,1.92
2022-09-06T05:47:45.643Z,2.28
2022-09-06T05:50:18.185Z,1.90
2022-09-06T05:52:51.312Z,1.60
2022-09-06T05:55:19.381Z,1.90
2022-09-06T05:57:47.589Z,1.33
2022-09-06T06:00:17.456Z,1.75
2022-09-06T06:02:49.392Z,2.35
2022-09-06T06:05:17.825Z,1.20
2022-09-06T06:07:52.662Z,1.65
2022-09-06T06:10:20.833Z,1.58
2022-09-06T06:12:49.646Z,1.30
2022-09-06T06:15:19.402Z,1.40
2022-09-06T06:17:47.732Z,1.20
2022-09-06T06:20:17.058Z,1.50
2022-09-06T06:22:45.138Z,1.83
2022-09-06T06:25:17.103Z,1.50
2022-09-06T06:28:06.324Z,1.38
2022-09-06T06:30:35.965Z,1.42
2022-09-06T06:33:04.086Z,1.58
2022-09-06T06:35:40.850Z,1.20
2022-09-06T06:38:10.781Z,1.25
2022-09-06T06:40:46.158Z,1.80
2022-09-06T06:43:22.197Z,2.10
2022-09-06T06:45:54.559Z,2.50
2022-09-06T06:48:51.561Z,2.40
2022-09-06T06:51:27.401Z,2.80
2022-09-06T06:53:56.834Z,1.73
2022-09-06T06:56:26.880Z,1.92
2022-09-06T06:58:57.418Z,2.22
2022-09-06T07:01:31.567Z,2.35
2022-09-06T07:09:20.747Z,1.83
2022-09-06T07:11:49.880Z,1.90
2022-09-06T07:14:18.533Z,1.80
2022-09-06T07:16:51.824Z,1.42
2022-09-06T07:22:11.743Z,2.35
2022-09-06T07:24:42.318Z,2.10
2022-09-06T07:30:02.998Z,1.70
2022-09-06T07:32:42.557Z,1.60
2022-09-06T07:35:20.761Z,1.60
2022-09-06T07:38:03.439Z,1.50
2022-09-06T07:40:32.165Z,1.92
2022-09-06T07:43:00.654Z,2.00
2022-09-06T07:45:28.612Z,2.45
2022-09-06T07:48:00.765Z,1.80
2022-09-06T07:50:48.892Z,2.25
2022-09-06T07:53:29.276Z,2.55
2022-09-06T07:56:01.888Z,2.22
2022-09-06T07:58:32.324Z,2.05
2022-09-06T08:01:30.263Z,2.20
2022-09-06T08:04:01.267Z,1.90
2022-09-06T08:06:31.318Z,1.70
2022-09-06T08:09:03.827Z,2.03
2022-09-06T08:11:40.990Z,1.92
2022-09-06T08:14:10.243Z,2.67
2022-09-06T08:16:44.127Z,2.97
2022-09-06T08:19:16.795Z,2.95
2022-09-06T08:21:47.223Z,1.88
2022-09-06T08:24:21.411Z,1.85
2022-09-06T08:29:17.551Z,1.70
2022-09-06T08:31:48.847Z,2.20
2022-09-06T08:34:21.363Z,1.45
2022-09-06T08:36:51.425Z,1.88
2022-09-06T08:39:22.225Z,1.98
2022-09-06T08:41:58.767Z,2.20
2022-09-06T08:47:19.769Z,1.73
2022-09-06T08:49:54.807Z,1.85
2022-09-06T08:53:15.759Z,1.30
2022-09-06T08:55:45.670Z,2.13
2022-09-06T08:58:38.413Z,2.58
2022-09-06T09:01:12.581Z,1.85
2022-09-06T09:03:43.619Z,2.30
2022-09-06T09:06:13.010Z,2.53
2022-09-06T09:09:18.772Z,1.85
2022-09-06T09:11:52.022Z,2.35
2022-09-06T09:14:30.370Z,1.73
2022-09-06T09:17:16.046Z,2.30
2022-09-06T09:19:47.438Z,3.17
2022-09-06T09:22:20.419Z,2.20
2022-09-06T09:25:19.887Z,2.10
2022-09-06T09:27:57.550Z,1.88
2022-09-06T09:33:27.993Z,2.97
2022-09-06T09:36:05.954Z,1.70
2022-09-06T09:38:45.767Z,1.52
2022-09-06T09:41:29.067Z,2.10
2022-09-06T09:44:04.205Z,2.13
2022-09-06T09:46:34.179Z,2.33
2022-09-06T09:49:10.653Z,2.40
2022-09-06T09:51:43.008Z,2.72
2022-09-06T09:54:14.886Z,2.10
2022-09-06T09:56:51.690Z,1.50
2022-09-06T09:59:26.966Z,2.65
2022-09-06T10:02:00.160Z,2.30
2022-09-06T10:04:46.356Z,1.80
2022-09-06T10:07:17.288Z,2.53
2022-09-06T10:09:48.900Z,1.60
2022-09-06T10:12:20.014Z,1.75
2022-09-06T10:14:49.884Z,1.60
2022-09-06T10:17:30.903Z,2.20
2022-09-06T10:20:03.667Z,1.25
2022-09-06T10:22:36.009Z,2.10
2022-09-06T10:25:37.770Z,1.70
2022-09-06T10:28:33.629Z,2.03
2022-09-06T10:31:54.604Z,1.45
2022-09-06T10:34:55.919Z,1.65
2022-09-06T10:37:51.576Z,1.98
2022-09-06T10:40:30.304Z,1.40
2022-09-06T10:43:02.482Z,1.73
2022-09-06T10:45:47.370Z,1.40
2022-09-06T10:48:22.470Z,1.48
2022-09-06T10:50:54.878Z,1.30
2022-09-06T10:53:35.837Z,1.13
2022-09-06T10:56:09.590Z,1.45
2022-09-06T11:01:41.447Z,1.45
2022-09-06T11:04:20.227Z,0.82
2022-09-06T11:06:59.377Z,2.15
2022-09-06T11:09:34.763Z,1.52
2022-09-06T11:12:13.452Z,1.00
2022-09-06T11:14:42.311Z,2.63
2022-09-06T11:17:38.414Z,1.92
2022-09-06T11:20:15.689Z,1.35
2022-09-06T11:23:29.057Z,1.20
2022-09-06T11:26:37.416Z,1.38
2022-09-06T11:29:15.684Z,1.30
2022-09-06T11:32:16.666Z,1.45
2022-09-06T11:37:40.589Z,0.80
2022-09-06T11:43:18.020Z,1.42
2022-09-06T11:45:50.376Z,1.90
2022-09-06T11:48:50.879Z,1.52
2022-09-06T11:51:45.118Z,1.00
2022-09-06T11:54:37.067Z,1.02
2022-09-06T11:57:15.600Z,1.00
2022-09-06T11:59:55.134Z,2.00
2022-09-06T12:02:40.861Z,1.58
2022-09-06T12:05:13.491Z,1.40
2022-09-06T12:08:18.924Z,1.40
2022-09-06T12:10:58.758Z,1.77
2022-09-06T12:14:04.158Z,1.75
2022-09-06T12:17:11.470Z,1.23
2022-09-06T12:19:50.217Z,1.35
2022-09-06T12:22:58.478Z,1.30
2022-09-06T12:26:00.192Z,0.90
2022-09-06T12:28:41.746Z,1.33
2022-09-06T12:31:29.100Z,0.80
2022-09-06T12:34:00.217Z,1.20
2022-09-06T12:39:24.744Z,1.00
2022-09-06T12:42:02.277Z,1.73
2022-09-06T12:44:34.638Z,1.58
2022-09-06T12:47:10.851Z,1.10
2022-09-06T12:49:38.728Z,1.38
2022-09-06T12:52:11.498Z,1.42
2022-09-06T12:54:48.174Z,1.33
2022-09-06T12:57:22.922Z,1.55
2022-09-06T12:59:55.493Z,1.60
2022-09-06T13:02:34.448Z,1.33
2022-09-06T13:05:06.419Z,1.15
2022-09-06T13:07:39.936Z,1.23
2022-09-06T13:10:08.813Z,2.58
2022-09-06T13:12:44.617Z,1.55
2022-09-06T13:15:19.571Z,0.98
2022-09-06T13:17:54.964Z,1.00
2022-09-06T13:20:27.111Z,1.05
2022-09-06T13:23:09.584Z,0.98
2022-09-06T13:25:48.289Z,1.30
2022-09-06T13:28:25.723Z,1.50
2022-09-06T13:31:05.225Z,1.52
2022-09-06T13:33:42.959Z,1.42
2022-09-06T13:36:37.096Z,1.30
2022-09-06T13:39:06.479Z,1.60
2022-09-06T13:41:42.746Z,1.30
2022-09-06T13:44:32.629Z,1.67
2022-09-06T13:47:02.872Z,1.90
2022-09-06T13:49:31.716Z,1.60
2022-09-06T13:52:04.199Z,1.40
2022-09-06T13:54:36.806Z,1.80
2022-09-06T13:57:04.963Z,1.38
2022-09-06T13:59:32.842Z,1.10
2022-09-06T14:02:03.250Z,1.58
2022-09-06T14:04:37.642Z,1.70
2022-09-06T14:07:06.400Z,1.30
2022-09-06T14:09:35.731Z,1.85
2022-09-06T14:12:05.945Z,1.30
2022-09-06T14:14:36.023Z,1.10
2022-09-06T14:17:04.160Z,1.45
2022-09-06T14:19:34.991Z,1.27
2022-09-06T14:22:09.095Z,1.10
2022-09-06T14:24:43.745Z,1.85
2022-09-06T14:27:11.772Z,1.60
2022-09-06T14:29:40.066Z,1.73
2022-09-06T14:32:10.877Z,1.42
2022-09-06T14:34:38.735Z,1.15
2022-09-06T14:37:13.441Z,1.13
2022-09-06T14:39:43.219Z,1.63
2022-09-06T14:42:18.552Z,1.75
2022-09-06T14:44:51.177Z,1.55
2022-09-06T14:47:31.763Z,1.52
2022-09-06T14:50:00.197Z,1.63
2022-09-06T14:52:28.449Z,1.70
2022-09-06T14:54:57.893Z,1.90
2022-09-06T14:57:38.299Z,1.42
2022-09-06T15:00:13.103Z,1.40
2022-09-06T15:02:41.281Z,1.35
2022-09-06T15:05:10.753Z,1.33
2022-09-06T15:07:39.001Z,1.60
2022-09-06T15:10:16.247Z,2.17
2022-09-06T15:12:44.279Z,2.00
2022-09-06T15:15:15.607Z,2.00
2022-09-06T15:17:45.534Z,1.58
2022-09-06T15:20:16.963Z,1.98
2022-09-06T15:22:45.045Z,1.63
2022-09-06T15:25:21.840Z,2.28
2022-09-06T15:27:49.919Z,1.45
2022-09-06T15:30:18.133Z,1.20
2022-09-06T15:32:46.168Z,1.63
2022-09-06T15:35:16.407Z,1.50
2022-09-06T15:37:47.354Z,1.90
2022-09-06T15:40:17.212Z,1.90
2022-09-06T15:42:45.241Z,1.80
2022-09-06T15:45:15.248Z,1.63
2022-09-06T15:47:43.473Z,1.88
2022-09-06T15:50:11.499Z,1.27
2022-09-06T15:52:39.441Z,1.20
2022-09-06T15:55:26.117Z,1.35
2022-09-06T15:57:55.435Z,1.27
2022-09-06T16:00:24.238Z,2.03
2022-09-06T16:02:52.708Z,1.83
2022-09-06T16:08:09.202Z,1.70
2022-09-06T16:10:41.804Z,2.30
2022-09-06T16:13:11.198Z,1.50
2022-09-06T16:15:39.127Z,1.60
2022-09-06T16:18:07.311Z,1.70
2022-09-06T16:20:38.502Z,1.60
2022-09-06T16:23:09.056Z,1.67
2022-09-06T16:25:40.091Z,1.50
2022-09-06T16:28:08.091Z,1.55
2022-09-06T16:30:42.306Z,1.50
2022-09-06T16:33:10.400Z,1.60
2022-09-06T16:35:44.704Z,1.60
2022-09-06T16:38:12.741Z,2.00
2022-09-06T16:40:50.459Z,2.05
2022-09-06T16:43:19.525Z,1.58
2022-09-06T16:45:58.511Z,2.08
2022-09-06T16:48:26.670Z,1.67
2022-09-06T16:50:55.019Z,1.92
2022-09-06T16:53:23.690Z,1.80
2022-09-06T16:55:52.055Z,1.63
2022-09-06T16:58:27.602Z,1.70
2022-09-06T17:00:57.004Z,1.50
2022-09-06T17:03:26.697Z,1.52
2022-09-06T17:05:55.478Z,1.98
2022-09-06T17:08:25.794Z,1.98
2022-09-06T17:10:59.556Z,1.98
2022-09-06T17:13:27.637Z,2.55
2022-09-06T17:16:16.444Z,1.98
2022-09-06T17:18:46.038Z,1.90
2022-09-06T17:21:14.145Z,2.00
2022-09-06T17:23:42.169Z,2.13
2022-09-06T17:26:10.315Z,1.88
2022-09-06T17:28:40.648Z,2.08
2022-09-06T17:31:10.744Z,1.30
2022-09-06T17:33:38.859Z,1.65
2022-09-06T17:36:14.723Z,1.10
2022-09-06T17:38:43.798Z,1.58
2022-09-06T17:41:19.752Z,1.70
2022-09-06T17:43:48.603Z,2.30
2022-09-06T17:46:23.218Z,1.70
2022-09-06T17:48:54.409Z,1.98
2022-09-06T17:51:25.065Z,2.03
2022-09-06T17:53:56.316Z,1.90
2022-09-06T17:56:24.909Z,1.70
2022-09-06T17:58:55.205Z,1.92
2022-09-06T18:01:29.474Z,1.60
2022-09-06T18:03:58.164Z,1.90
2022-09-06T18:06:28.392Z,1.60
2022-09-06T18:08:59.514Z,2.00
2022-09-06T18:11:29.614Z,1.92
2022-09-06T18:13:59.806Z,1.60
2022-09-06T18:16:34.009Z,2.10
2022-09-06T18:19:04.541Z,2.10
2022-09-06T18:21:35.240Z,1.85
2022-09-06T18:24:03.800Z,1.80
2022-09-06T18:26:31.902Z,1.52
2022-09-06T18:28:59.939Z,1.58
2022-09-06T18:31:28.888Z,1.63
2022-09-06T18:33:58.905Z,1.75
2022-09-06T18:36:31.975Z,1.83
2022-09-06T18:39:05.062Z,2.08
2022-09-06T18:41:51.590Z,2.33
2022-09-06T18:44:20.634Z,1.77
2022-09-06T18:46:48.700Z,2.15
2022-09-06T18:49:19.064Z,1.40
2022-09-06T18:51:47.269Z,2.00
2022-09-06T18:54:15.780Z,1.63
2022-09-06T18:56:45.389Z,1.60
2022-09-06T18:59:14.420Z,1.40
2022-09-06T19:02:07.901Z,1.60
2022-09-06T19:04:39.809Z,2.42
2022-09-06T19:07:07.865Z,1.90
2022-09-06T19:09:35.907Z,2.15
2022-09-06T19:12:04.859Z,1.90
2022-09-06T19:14:33.659Z,1.55
2022-09-06T19:17:05.495Z,2.47
2022-09-06T19:19:34.278Z,2.60
2022-09-06T19:22:03.770Z,1.65
2022-09-06T19:24:32.167Z,1.85
2022-09-06T19:27:00.193Z,1.85
2022-09-06T19:29:28.562Z,1.73
2022-09-06T19:31:59.435Z,1.27
2022-09-06T19:34:27.552Z,1.88
2022-09-06T19:36:59.232Z,1.92
2022-09-06T19:39:38.037Z,1.30
2022-09-06T19:42:06.496Z,1.70
2022-09-06T19:44:36.210Z,1.50
2022-09-06T19:47:07.715Z,1.30
2022-09-06T19:49:35.883Z,1.20
2022-09-06T19:52:11.760Z,1.65
2022-09-06T19:54:48.467Z,1.63
2022-09-06T19:57:16.476Z,1.45
2022-09-06T19:59:44.602Z,1.30
2022-09-06T20:02:13.413Z,1.52
2022-09-06T20:04:42.251Z,1.58
2022-09-06T20:07:10.596Z,1.40
2022-09-06T20:09:43.230Z,1.25
2022-09-06T20:12:12.134Z,1.30
2022-09-06T20:14:42.902Z,1.30
2022-09-06T20:17:32.304Z,1.58
2022-09-06T20:20:01.389Z,1.85
2022-09-06T20:22:29.342Z,1.40
2022-09-06T20:24:59.823Z,1.10
2022-09-06T20:27:27.940Z,1.50
2022-09-06T20:29:56.084Z,1.60
2022-09-06T20:32:24.082Z,1.23
2022-09-06T20:34:52.063Z,1.08
2022-09-06T20:37:20.145Z,1.10
2022-09-06T20:39:48.316Z,1.10
2022-09-06T20:42:19.998Z,1.45
2022-09-06T20:44:47.996Z,1.00
2022-09-06T20:47:16.084Z,1.15
2022-09-06T20:49:44.544Z,1.42
2022-09-06T20:52:18.240Z,1.30
2022-09-06T20:54:46.362Z,1.33
2022-09-06T20:57:14.806Z,1.60
2022-09-06T20:59:44.186Z,1.23
2022-09-06T21:02:38.569Z,1.55
2022-09-06T21:05:07.108Z,1.20
2022-09-06T21:07:35.261Z,1.33
2022-09-06T21:10:03.339Z,1.15
2022-09-06T21:12:54.902Z,1.30
2022-09-06T21:21:10.220Z,1.30
2022-09-06T21:23:40.043Z,1.60
2022-09-06T21:26:10.032Z,1.30
2022-09-06T21:28:42.779Z,1.30
2022-09-06T21:31:14.209Z,1.25
2022-09-06T21:33:44.185Z,0.80
2022-09-06T21:36:14.022Z,1.20
2022-09-06T21:38:45.354Z,1.17
2022-09-06T21:41:15.235Z,1.00
2022-09-06T21:43:44.520Z,1.30
2022-09-06T21:46:15.474Z,1.10
2022-09-06T21:48:45.711Z,1.30
2022-09-06T21:51:15.209Z,1.10
2022-09-06T21:53:44.267Z,1.50
2022-09-06T21:56:13.307Z,1.10
2022-09-06T21:58:41.677Z,1.38
2022-09-06T22:01:09.876Z,1.20
2022-09-06T22:03:40.253Z,1.45
2022-09-06T22:06:13.374Z,2.00
2022-09-06T22:08:43.237Z,1.73
2022-09-06T22:11:12.783Z,1.88
2022-09-06T22:13:42.040Z,1.80
2022-09-06T22:16:10.836Z,2.45
2022-09-06T22:18:41.108Z,2.10
2022-09-06T22:21:12.361Z,1.85
2022-09-06T22:23:41.041Z,1.60
2022-09-06T22:26:11.160Z,1.98
2022-09-06T22:28:40.220Z,1.25
2022-09-06T22:31:21.887Z,1.20
2022-09-06T22:33:51.858Z,1.35
2022-09-06T22:36:20.516Z,1.30
2022-09-06T22:38:48.551Z,1.20
2022-09-06T22:41:16.675Z,1.00
2022-09-06T22:43:44.649Z,1.20
2022-09-06T22:46:13.461Z,1.08
2022-09-06T22:48:41.378Z,1.25
2022-09-06T22:51:10.723Z,1.20
2022-09-06T22:53:38.986Z,1.25
2022-09-06T22:56:07.260Z,1.40
2022-09-06T22:58:36.314Z,1.35
2022-09-06T23:01:09.621Z,1.05
2022-09-06T23:03:37.915Z,1.08
2022-09-06T23:06:06.573Z,1.25
2022-09-06T23:08:37.860Z,1.20
2022-09-06T23:11:08.107Z,1.17
2022-09-06T23:13:36.959Z,1.40
2022-09-06T23:16:06.352Z,1.63
2022-09-06T23:18:35.069Z,1.15
2022-09-06T23:21:07.888Z,1.25
2022-09-06T23:23:38.539Z,1.25
2022-09-06T23:26:08.857Z,1.30
2022-09-06T23:28:38.097Z,1.13
2022-09-06T23:31:07.889Z,1.45
2022-09-06T23:33:37.347Z,1.30
2022-09-06T23:36:05.931Z,1.70
2022-09-06T23:38:35.080Z,1.80
2022-09-06T23:41:05.869Z,1.98
2022-09-06T23:43:33.986Z,1.58
2022-09-06T23:46:01.945Z,2.00
2022-09-06T23:48:30.285Z,1.65
2022-09-06T23:50:58.696Z,1.77
2022-09-06T23:53:27.183Z,1.83
2022-09-06T23:55:55.403Z,1.95
2022-09-06T23:58:24.961Z,1.60
